Time;durP1;ratioP1;P1;durP2;ratioP2;P2;SDS_P1;SDS_P2;PMS_P1;PMS_P2;Temp;Humidity;BMP_temperature;BMP_pressure;BME280_temperature;BME280_humidity;BME280_pressure;Samples;Min_cycle;Max_cycle;Signal;HPM_P1;HPM_P2
2021/03/29 00:00:08;;;;;;;8.68;4.88;;;5.90;99.90;;;5.77;86.87;102515.19;4152217;28;20029;-73
2021/03/29 00:02:09;;;;;;;7.20;4.57;;;5.90;99.90;;;5.75;86.74;102516.22;4169389;28;20034;-73
2021/03/29 00:04:11;;;;;;;9.98;5.28;;;5.90;99.90;;;5.69;87.49;102516.53;4152129;28;20048;-73
2021/03/29 00:06:12;;;;;;;11.20;4.65;;;5.90;99.90;;;5.69;86.76;102517.38;4152076;28;20037;-73
2021/03/29 00:08:20;;;;;;;9.48;5.90;;;5.90;99.90;;;5.72;86.28;102511.13;4169621;28;20048;-73
2021/03/29 00:10:22;;;;;;;9.13;4.57;;;5.90;99.90;;;5.68;86.21;102513.06;4169387;28;20116;-73
2021/03/29 00:12:24;;;;;;;9.50;5.22;;;5.90;99.90;;;5.73;86.14;102505.00;4169636;28;20017;-73
2021/03/29 00:14:27;;;;;;;9.85;5.30;;;5.90;99.90;;;5.75;86.00;102503.97;4151899;28;20483;-72
2021/03/29 00:16:29;;;;;;;7.47;5.32;;;5.80;99.90;;;5.67;86.96;102510.53;4167950;28;20031;-73
2021/03/29 00:18:30;;;;;;;9.65;5.40;;;5.80;99.90;;;5.57;87.26;102508.41;4152049;28;20493;-73
2021/03/29 00:20:32;;;;;;;9.55;6.20;;;5.80;99.90;;;5.69;87.37;102506.91;4151991;28;20503;-73
2021/03/29 00:22:33;;;;;;;9.90;6.07;;;5.90;99.90;;;5.44;87.74;102504.75;4169467;28;20038;-73
2021/03/29 00:24:35;;;;;;;7.75;5.40;;;5.70;99.90;;;5.36;88.60;102508.69;4169260;28;20033;-73
2021/03/29 00:26:37;;;;;;;8.48;6.43;;;5.70;99.90;;;5.43;89.03;102510.06;4151984;28;20037;-73
2021/03/29 00:28:38;;;;;;;8.73;5.70;;;5.70;99.90;;;5.47;88.68;102504.56;4151776;28;20025;-72
2021/03/29 00:30:45;;;;;;;9.30;6.53;;;5.70;99.90;;;5.51;88.32;102508.75;4169448;28;20030;-73
2021/03/29 00:32:46;;;;;;;14.68;6.53;;;5.70;99.90;;;5.52;88.07;102502.59;4168981;28;20061;-73
2021/03/29 00:34:48;;;;;;;11.77;7.10;;;5.70;99.90;;;5.51;87.73;102507.88;4151849;28;20049;-73
2021/03/29 00:36:51;;;;;;;15.68;6.80;;;5.70;99.90;;;5.39;88.51;102498.91;4151745;28;20026;-73
2021/03/29 00:38:55;;;;;;;11.50;7.72;;;5.60;99.90;;;5.41;88.96;102501.44;4151789;28;20032;-73
2021/03/29 00:41:03;;;;;;;14.27;7.13;;;5.70;99.90;;;5.38;89.62;102512.06;4169050;28;20104;-73
2021/03/29 00:43:32;;;;;;;9.60;7.10;;;5.60;99.90;;;5.38;89.19;102498.97;4151549;28;20417;-73
2021/03/29 00:45:33;;;;;;;12.13;7.03;;;5.60;99.90;;;5.46;88.28;102507.28;4132546;28;20089;-73
2021/03/29 00:47:35;;;;;;;9.35;6.30;;;5.60;99.90;;;5.43;88.57;102510.06;4168728;28;20144;-73
2021/03/29 00:49:37;;;;;;;10.55;6.25;;;5.60;99.90;;;5.40;88.82;102505.84;4169030;28;20057;-73
2021/03/29 00:51:39;;;;;;;10.95;6.07;;;5.60;99.90;;;5.43;87.89;102503.06;4169040;28;20079;-73
2021/03/29 00:53:44;;;;;;;10.00;6.10;;;5.60;99.90;;;5.41;87.68;102512.75;4168819;28;20022;-73
2021/03/29 00:55:48;;;;;;;10.80;6.00;;;5.60;99.90;;;5.40;86.73;102507.59;4168965;28;20033;-73
2021/03/29 00:57:51;;;;;;;10.07;6.00;;;5.60;99.90;;;5.33;86.06;102486.13;4168870;28;20061;-73
2021/03/29 00:59:52;;;;;;;9.63;6.43;;;5.60;99.90;;;5.47;86.07;102507.19;4168984;28;20503;-73
2021/03/29 01:01:54;;;;;;;8.32;5.78;;;5.60;99.90;;;5.35;86.14;102494.75;4168514;28;20025;-73
2021/03/29 01:04:02;;;;;;;7.38;6.35;;;5.60;99.90;;;5.33;87.43;102493.13;4151500;28;20113;-73
2021/03/29 01:06:11;;;;;;;9.93;5.90;;;5.50;99.90;;;5.33;88.33;102503.59;4151782;28;20029;-73
2021/03/29 01:08:14;;;;;;;11.27;6.47;;;5.60;99.90;;;5.36;88.32;102498.22;4168734;28;20029;-73
2021/03/29 01:10:15;;;;;;;9.65;6.15;;;5.60;99.90;;;5.37;88.50;102503.38;4151102;28;20037;-73
2021/03/29 01:12:18;;;;;;;9.65;5.75;;;5.60;99.90;;;5.36;88.18;102506.91;4151215;28;20053;-73
2021/03/29 01:14:29;;;;;;;11.65;6.07;;;5.50;99.90;;;5.33;88.07;102499.22;4151086;28;20018;-73
2021/03/29 01:16:37;;;;;;;7.97;5.32;;;5.50;99.90;;;5.19;89.10;102495.63;4168326;28;20120;-73
2021/03/29 01:18:43;;;;;;;8.98;5.47;;;5.50;99.90;;;5.28;88.30;102509.09;4135218;28;20026;-73
2021/03/29 01:21:12;;;;;;;8.75;6.30;;;5.50;99.90;;;5.23;88.11;102498.00;4151347;28;20128;-73
2021/03/29 01:23:13;;;;;;;16.05;8.38;;;5.50;99.90;;;5.28;87.63;102496.00;4168657;28;20036;-73
2021/03/29 01:25:35;;;;;;;12.68;8.95;;;5.40;99.90;;;5.34;87.73;102502.69;4151089;28;20441;-73
2021/03/29 01:28:01;;;;;;;16.17;9.35;;;5.50;99.90;;;5.25;87.74;102490.94;4151952;28;20028;-73
2021/03/29 01:30:07;;;;;;;12.80;8.27;;;5.50;99.90;;;5.33;87.92;102499.22;4167299;28;20033;-72
2021/03/29 01:32:11;;;;;;;17.30;8.55;;;5.50;99.90;;;5.30;88.24;102502.00;4168170;28;20024;-73
2021/03/29 01:34:15;;;;;;;12.40;6.38;;;5.50;99.90;;;5.22;89.07;102500.72;4151130;28;20104;-73
2021/03/29 01:36:16;;;;;;;9.53;6.20;;;5.50;99.90;;;5.24;88.86;102502.31;4151127;28;20037;-73
2021/03/29 01:38:17;;;;;;;10.13;6.18;;;5.40;99.90;;;5.27;87.79;102499.53;4168493;28;20300;-73
2021/03/29 01:40:20;;;;;;;10.85;6.57;;;5.50;99.90;;;5.29;87.21;102500.28;4168443;28;20057;-73
2021/03/29 01:42:22;;;;;;;10.65;6.18;;;5.50;99.90;;;5.24;87.22;102496.22;4150764;28;20025;-73
2021/03/29 01:44:24;;;;;;;11.68;6.68;;;5.40;99.90;;;5.08;87.81;102493.53;4150865;28;20030;-73
2021/03/29 01:46:26;;;;;;;14.07;6.82;;;5.30;99.90;;;4.98;89.10;102487.97;4150530;28;20095;-73
2021/03/29 01:48:27;;;;;;;12.93;6.95;;;5.40;99.90;;;5.07;89.13;102504.94;4150661;28;20504;-73
2021/03/29 01:50:34;;;;;;;10.80;5.57;;;5.30;99.90;;;5.09;89.10;102489.16;4150620;28;20089;-73
2021/03/29 01:52:35;;;;;;;10.07;5.93;;;5.30;99.90;;;5.07;89.15;102494.50;4166950;28;20492;-73
2021/03/29 01:54:37;;;;;;;8.90;5.63;;;5.30;99.90;;;5.04;88.95;102492.03;4150792;28;20025;-73
2021/03/29 01:56:38;;;;;;;12.07;6.63;;;5.30;99.90;;;4.94;88.61;102480.34;4166977;28;20061;-73
2021/03/29 01:58:39;;;;;;;11.27;6.15;;;5.30;99.90;;;4.99;87.72;102491.41;4152639;28;20604;-73
2021/03/29 02:00:47;;;;;;;9.93;6.70;;;5.20;99.90;;;4.91;87.68;102496.19;4155374;28;20485;-73
2021/03/29 02:02:49;;;;;;;12.07;6.45;;;5.20;99.90;;;4.84;88.56;102486.94;4155031;28;20026;-73
2021/03/29 02:04:50;;;;;;;9.68;6.03;;;5.10;99.90;;;4.92;88.40;102482.19;4154018;28;20040;-73
2021/03/29 02:06:51;;;;;;;9.32;5.57;;;5.10;99.90;;;4.97;88.23;102485.41;4170598;28;20459;-73
2021/03/29 02:08:55;;;;;;;12.20;6.35;;;5.20;99.90;;;4.89;87.84;102470.13;4155065;28;20094;-73
2021/03/29 02:10:57;;;;;;;8.10;5.78;;;5.20;99.90;;;5.00;87.74;102480.88;4154044;28;20041;-73
2021/03/29 02:13:35;;;;;;;10.38;6.30;;;5.20;99.90;;;4.88;87.98;102480.63;4153896;28;20026;-73
2021/03/29 02:15:36;;;;;;;13.45;6.32;;;5.10;99.90;;;4.83;88.91;102477.41;4154040;28;20026;-73
2021/03/29 02:17:39;;;;;;;14.30;6.93;;;5.10;99.90;;;4.80;89.02;102477.56;4153639;28;20523;-73
2021/03/29 02:19:42;;;;;;;15.38;7.43;;;5.10;99.90;;;4.88;88.75;102470.19;4137308;28;20058;-73
2021/03/29 02:21:44;;;;;;;12.70;7.35;;;5.10;99.90;;;4.83;89.83;102480.03;4153815;28;20026;-73
2021/03/29 02:23:56;;;;;;;11.65;6.15;;;5.10;99.90;;;4.73;90.93;102484.88;4154991;28;20107;-73
2021/03/29 02:26:00;;;;;;;12.07;6.07;;;5.10;99.90;;;4.79;89.36;102468.88;4153764;28;20105;-73
2021/03/29 02:28:05;;;;;;;13.27;6.70;;;5.00;99.90;;;4.66;89.01;102435.59;4153820;28;20026;-73
2021/03/29 02:30:11;;;;;;;12.80;6.68;;;5.10;99.90;;;4.82;89.32;102473.94;4153550;28;20038;-73
2021/03/29 02:32:12;;;;;;;13.57;7.05;;;5.00;99.90;;;4.74;89.53;102467.41;4154597;28;20026;-73
2021/03/29 02:34:15;;;;;;;12.05;8.02;;;5.00;99.90;;;4.92;88.85;102467.34;4154660;28;20029;-73
2021/03/29 02:36:19;;;;;;;12.27;7.72;;;5.10;99.90;;;4.97;88.37;102461.88;4153418;28;20041;-73
2021/03/29 02:38:21;;;;;;;10.85;7.13;;;5.10;99.90;;;4.89;89.10;102467.50;4154880;28;20034;-73
2021/03/29 02:40:24;;;;;;;14.55;7.85;;;5.10;99.90;;;4.99;88.77;102473.09;4154787;28;20026;-73
2021/03/29 02:42:25;;;;;;;10.75;7.38;;;5.10;99.90;;;4.87;88.14;102465.88;4154555;28;20037;-73
2021/03/29 02:44:26;;;;;;;11.63;7.15;;;5.10;99.90;;;4.85;88.99;102471.19;4153470;28;20065;-73
2021/03/29 02:46:29;;;;;;;14.90;8.13;;;5.10;99.90;;;4.74;88.86;102451.75;4154507;28;20044;-73
2021/03/29 02:48:39;;;;;;;12.03;8.13;;;5.10;99.90;;;4.86;88.16;102467.66;4153237;28;20050;-73
2021/03/29 02:50:43;;;;;;;14.77;8.55;;;5.00;99.90;;;4.84;87.27;102464.25;4153125;28;20283;-73
2021/03/29 02:52:54;;;;;;;12.43;8.27;;;5.10;99.90;;;4.86;87.57;102474.66;4153471;28;20118;-73
2021/03/29 02:54:55;;;;;;;14.82;9.05;;;5.10;99.90;;;4.87;87.07;102463.25;4154504;28;20032;-73
2021/03/29 02:56:59;;;;;;;15.23;8.88;;;5.10;99.90;;;4.83;87.22;102459.13;4154386;28;20536;-73
2021/03/29 02:59:09;;;;;;;14.90;9.00;;;5.00;99.90;;;4.76;87.30;102455.09;4153411;28;20051;-73
2021/03/29 03:01:13;;;;;;;14.18;8.60;;;5.00;99.90;;;4.76;87.47;102457.72;4152861;28;20042;-73
2021/03/29 03:03:14;;;;;;;17.30;8.73;;;5.00;99.90;;;4.70;87.24;102460.63;4154445;28;20431;-73
2021/03/29 03:05:17;;;;;;;13.10;8.70;;;5.00;99.90;;;4.71;87.42;102462.34;4154407;28;20033;-73
2021/03/29 03:07:18;;;;;;;12.10;8.50;;;4.90;99.90;;;4.58;87.24;102442.97;4153126;28;20025;-73
2021/03/29 03:09:21;;;;;;;13.75;7.88;;;4.90;99.90;;;4.59;87.20;102469.03;4153823;28;20464;-73
2021/03/29 03:11:23;;;;;;;15.40;8.73;;;4.80;99.90;;;4.55;87.12;102461.41;4152917;28;20029;-73
2021/03/29 03:13:24;;;;;;;13.30;8.07;;;4.80;99.90;;;4.54;87.74;102459.72;4153115;28;20037;-73
2021/03/29 03:15:28;;;;;;;12.57;8.57;;;4.80;99.90;;;4.55;87.75;102445.72;4152935;28;20081;-73
2021/03/29 03:17:33;;;;;;;12.15;7.18;;;4.80;99.90;;;4.50;87.83;102445.09;4154025;28;20022;-73
2021/03/29 03:19:35;;;;;;;13.32;8.25;;;4.80;99.90;;;4.47;87.80;102435.66;4154306;28;20026;-73
2021/03/29 03:21:37;;;;;;;10.90;7.40;;;4.70;99.90;;;4.50;87.77;102442.50;4153979;28;20076;-73
2021/03/29 03:23:38;;;;;;;11.55;7.20;;;4.70;99.90;;;4.46;87.62;102436.56;4154277;28;20018;-73
2021/03/29 03:25:48;;;;;;;11.10;7.28;;;4.70;99.90;;;4.46;87.50;102441.78;4154082;28;20037;-73
2021/03/29 03:27:50;;;;;;;9.82;6.65;;;4.70;99.90;;;4.44;87.23;102431.44;4152767;28;20032;-73
2021/03/29 03:29:51;;;;;;;12.35;6.85;;;4.70;99.90;;;4.56;87.56;102436.97;4152801;28;20045;-73
2021/03/29 03:31:52;;;;;;;11.48;7.70;;;4.70;99.90;;;4.50;87.66;102429.44;4153831;28;20496;-73
2021/03/29 03:33:54;;;;;;;9.90;7.68;;;4.70;99.90;;;4.51;87.55;102429.34;4152788;28;20048;-73
2021/03/29 03:35:55;;;;;;;11.73;6.85;;;4.70;99.90;;;4.42;87.73;102419.38;4152698;28;20030;-73
2021/03/29 03:38:01;;;;;;;11.13;6.70;;;4.60;99.90;;;4.41;87.86;102423.75;4152533;28;20061;-73
2021/03/29 03:40:04;;;;;;;10.30;6.70;;;4.70;99.90;;;4.24;87.90;102426.31;4169175;28;20037;-73
2021/03/29 03:42:07;;;;;;;9.57;6.93;;;4.60;99.90;;;4.18;88.91;102421.38;4153714;28;20037;-73
2021/03/29 03:44:09;;;;;;;8.38;5.88;;;4.50;99.90;;;4.24;88.41;102421.09;4153848;28;20473;-73
2021/03/29 03:46:23;;;;;;;8.55;6.25;;;4.50;99.90;;;4.25;88.70;102412.34;4153563;28;20434;-73
2021/03/29 03:48:25;;;;;;;10.88;7.03;;;4.60;99.90;;;4.15;88.76;102405.88;4152488;28;20042;-73
2021/03/29 03:50:27;;;;;;;11.43;6.53;;;4.50;99.90;;;4.27;88.39;102414.91;4152314;28;20112;-73
2021/03/29 03:52:28;;;;;;;9.25;6.57;;;4.50;99.90;;;4.22;88.50;102407.28;4152464;28;20022;-73
2021/03/29 03:54:29;;;;;;;9.52;6.90;;;4.50;99.90;;;4.31;87.78;102416.41;4168801;28;20029;-73
2021/03/29 03:56:34;;;;;;;9.85;6.20;;;4.50;99.90;;;4.21;88.61;102418.63;4153317;28;20125;-73
2021/03/29 03:58:35;;;;;;;10.05;6.43;;;4.40;99.90;;;4.21;88.02;102409.97;4153443;28;20037;-73
2021/03/29 04:00:36;;;;;;;11.25;6.15;;;4.50;99.90;;;4.20;87.87;102414.34;4152168;28;20044;-73
2021/03/29 04:02:37;;;;;;;9.90;6.00;;;4.40;99.90;;;4.13;87.25;102418.16;4153279;28;20473;-73
2021/03/29 04:04:38;;;;;;;11.52;7.20;;;4.40;99.90;;;4.15;86.95;102418.09;4153160;28;20034;-73
2021/03/29 04:06:39;;;;;;;13.52;6.25;;;4.40;99.90;;;4.03;87.73;102410.84;4153280;28;20030;-73
2021/03/29 04:08:41;;;;;;;14.00;7.03;;;4.40;99.90;;;4.05;87.83;102420.31;4153473;28;20437;-73
2021/03/29 04:10:53;;;;;;;10.25;6.57;;;4.30;99.90;;;4.04;88.03;102416.00;4152031;28;20446;-73
2021/03/29 04:12:55;;;;;;;9.13;5.95;;;4.30;99.90;;;4.11;86.98;102414.78;4152033;28;20037;-73
2021/03/29 04:14:56;;;;;;;9.27;5.82;;;4.30;99.90;;;4.02;87.63;102425.66;4153196;28;20034;-73
2021/03/29 04:16:57;;;;;;;13.02;6.22;;;4.30;99.90;;;3.92;87.70;102419.19;4153072;28;20026;-73
2021/03/29 04:18:57;;;;;;;7.10;5.80;;;4.20;99.90;;;3.95;88.18;102424.25;4153350;28;20026;-73
2021/03/29 04:20:59;;;;;;;9.82;6.18;;;4.20;99.90;;;3.84;88.98;102418.72;4152182;28;20029;-73
2021/03/29 04:23:00;;;;;;;10.20;6.32;;;4.20;99.90;;;3.91;88.51;102422.72;4153173;28;20064;-73
2021/03/29 04:25:02;;;;;;;8.93;6.50;;;4.20;99.90;;;3.98;88.43;102425.88;4153223;28;20028;-73
2021/03/29 04:27:03;;;;;;;11.02;6.20;;;4.20;99.90;;;4.03;87.14;102427.38;4153183;28;20026;-73
2021/03/29 04:29:04;;;;;;;9.60;5.55;;;4.20;99.90;;;3.97;87.46;102429.41;4153247;28;20036;-73
2021/03/29 04:31:05;;;;;;;10.75;6.72;;;4.20;99.90;;;3.90;87.55;102421.03;4152578;28;20033;-73
2021/03/29 04:33:07;;;;;;;9.38;5.70;;;4.20;99.90;;;3.80;87.57;102425.81;4152967;28;20026;-73
2021/03/29 04:35:09;;;;;;;8.52;5.53;;;4.20;99.90;;;3.73;88.47;102420.97;4151871;28;20037;-73
2021/03/29 04:37:09;;;;;;;9.43;5.90;;;4.10;99.90;;;3.71;89.21;102420.19;4151559;28;20026;-73
2021/03/29 04:39:10;;;;;;;12.15;6.55;;;4.00;99.90;;;3.80;88.62;102417.16;4152802;28;20030;-73
2021/03/29 04:41:11;;;;;;;9.57;5.53;;;4.00;99.90;;;3.86;87.57;102422.09;4152930;28;20029;-73
2021/03/29 04:43:13;;;;;;;8.10;5.53;;;4.10;99.90;;;3.81;87.59;102421.47;4152944;28;20065;-73
2021/03/29 04:45:15;;;;;;;8.77;5.82;;;4.10;99.90;;;3.68;87.60;102417.72;4152740;28;20432;-73
2021/03/29 04:47:16;;;;;;;7.82;5.60;;;4.00;99.90;;;3.60;88.70;102418.09;4155344;28;20059;-73
2021/03/29 04:49:17;;;;;;;8.18;5.38;;;4.00;99.90;;;3.62;89.48;102420.59;4169146;28;20021;-73
2021/03/29 04:51:18;;;;;;;9.70;5.60;;;3.90;99.90;;;3.63;89.99;102427.53;4169026;28;20038;-73
2021/03/29 04:53:18;;;;;;;10.65;5.78;;;3.90;99.90;;;3.66;89.03;102422.16;4168960;28;20022;-73
2021/03/29 04:55:20;;;;;;;9.27;5.80;;;4.00;99.90;;;3.74;87.92;102426.13;4169039;28;20025;-73
2021/03/29 04:57:21;;;;;;;9.05;5.28;;;4.00;99.90;;;3.70;87.95;102419.34;4138265;28;20037;-73
2021/03/29 04:59:22;;;;;;;6.82;5.10;;;4.00;99.90;;;3.68;87.97;102426.41;4169128;28;20057;-73
2021/03/29 05:01:23;;;;;;;9.30;5.88;;;4.00;99.90;;;3.63;87.93;102428.38;4168808;28;20036;-73
2021/03/29 05:03:24;;;;;;;8.32;5.30;;;3.90;99.90;;;3.71;87.45;102425.41;4168857;28;20500;-73
2021/03/29 05:05:25;;;;;;;6.20;5.25;;;3.90;99.90;;;3.66;87.12;102422.16;4168891;28;20037;-73
2021/03/29 05:07:27;;;;;;;8.70;5.65;;;3.90;99.90;;;3.70;86.93;102419.34;4168875;28;20029;-73
2021/03/29 05:09:29;;;;;;;11.10;5.45;;;3.90;99.90;;;3.69;86.70;102428.09;4168893;28;20037;-73
2021/03/29 05:11:45;;;;;;;11.82;5.70;;;3.90;99.90;;;3.74;86.31;102425.25;4151340;28;20034;-73
2021/03/29 05:13:46;;;;;;;9.75;5.50;;;3.90;99.90;;;3.69;86.23;102427.25;4168881;28;20021;-73
2021/03/29 05:15:47;;;;;;;9.93;5.35;;;3.90;99.90;;;3.68;85.94;102426.41;4168548;28;20017;-73
2021/03/29 05:17:47;;;;;;;10.05;5.82;;;3.90;99.90;;;3.66;85.55;102425.63;4168728;28;20079;-73
2021/03/29 05:19:48;;;;;;;11.23;5.78;;;3.80;99.90;;;3.75;85.36;102432.19;4168542;28;20014;-73
2021/03/29 05:21:49;;;;;;;9.35;5.72;;;3.90;99.90;;;3.64;85.72;102419.66;4168446;28;20032;-73
2021/03/29 05:23:50;;;;;;;6.78;4.90;;;3.90;99.90;;;3.73;85.15;102434.03;4168773;28;20025;-73
2021/03/29 05:25:51;;;;;;;6.78;5.05;;;3.90;99.90;;;3.57;85.66;102439.09;4168692;28;20025;-73
2021/03/29 05:27:54;;;;;;;8.43;5.10;;;3.80;99.90;;;3.35;86.57;102428.78;4168643;28;20045;-73
2021/03/29 05:29:55;;;;;;;6.80;5.35;;;3.80;99.90;;;3.38;86.21;102432.16;4151264;28;20485;-73
2021/03/29 05:31:56;;;;;;;5.50;4.68;;;3.70;99.90;;;3.34;87.39;102434.06;4168317;28;20083;-73
2021/03/29 05:33:57;;;;;;;7.03;5.15;;;3.60;99.90;;;3.26;87.55;102439.63;4168574;28;20387;-73
2021/03/29 05:35:58;;;;;;;9.95;5.22;;;3.60;99.90;;;3.38;87.13;102442.59;4168269;28;20029;-73
2021/03/29 05:37:59;;;;;;;6.88;5.20;;;3.60;99.90;;;3.27;86.59;102443.94;4168511;28;20026;-73
2021/03/29 05:40:01;;;;;;;8.10;5.53;;;3.60;99.90;;;3.09;87.05;102444.72;4168454;28;20361;-73
2021/03/29 05:42:04;;;;;;;8.77;5.35;;;3.50;99.90;;;3.12;87.06;102447.19;4167965;28;20036;-73
2021/03/29 05:44:08;;;;;;;11.40;5.63;;;3.50;99.90;;;3.15;88.40;102444.47;4150552;28;20491;-73
2021/03/29 05:46:10;;;;;;;6.63;4.35;;;3.50;99.90;;;3.14;88.42;102449.72;4168227;28;20076;-73
2021/03/29 05:48:11;;;;;;;9.02;5.95;;;3.50;99.90;;;3.18;88.38;102454.75;4168074;28;20053;-73
2021/03/29 05:50:16;;;;;;;8.43;5.38;;;3.50;99.90;;;3.25;87.45;102443.16;4168185;28;20400;-73
2021/03/29 05:52:17;;;;;;;8.38;5.80;;;3.50;99.90;;;3.26;87.55;102442.22;4168057;28;20022;-73
2021/03/29 05:54:19;;;;;;;10.30;5.53;;;3.50;99.90;;;3.29;87.22;102447.31;4168311;28;20026;-73
2021/03/29 05:56:20;;;;;;;7.90;4.95;;;3.50;99.90;;;3.39;86.82;102455.56;4168308;28;20026;-73
2021/03/29 06:00:31;;;;;;;;;;;3.60;99.90;;;3.25;87.51;102443.16;4168811;28;20072;-73
2021/03/29 06:02:32;;;;;;;7.25;5.72;;;3.60;99.90;;;3.16;87.28;102451.38;4168077;28;20339;-73
2021/03/29 06:04:49;;;;;;;7.57;4.97;;;3.50;99.90;;;3.19;86.90;102443.44;4168175;28;20028;-73
2021/03/29 06:06:51;;;;;;;8.90;6.22;;;3.60;99.90;;;3.19;87.10;102442.56;4150394;28;20026;-73
2021/03/29 06:08:53;;;;;;;10.63;5.60;;;3.50;99.90;;;3.23;87.52;102439.75;4168364;28;20131;-73
2021/03/29 06:10:56;;;;;;;6.28;5.22;;;3.60;99.90;;;3.25;87.31;102439.69;4167964;28;20034;-73
2021/03/29 06:12:57;;;;;;;7.95;5.70;;;3.60;99.90;;;3.21;88.16;102449.41;4150661;28;20033;-72
2021/03/29 06:15:01;;;;;;;8.35;5.30;;;3.50;99.90;;;3.25;87.88;102435.34;4162917;28;20112;-73
2021/03/29 06:17:14;;;;;;;10.55;5.95;;;3.60;99.90;;;3.30;88.23;102445.53;4147442;28;20045;-73
2021/03/29 06:19:38;;;;;;;12.43;6.13;;;3.80;99.90;;;3.20;88.30;102445.09;4165864;28;20037;-73
2021/03/29 06:21:38;;;;;;;6.97;5.40;;;3.60;99.90;;;3.25;88.34;102443.16;4168027;28;20030;-72
2021/03/29 06:23:43;;;;;;;7.22;5.57;;;3.60;99.90;;;3.29;87.90;102443.84;4167614;28;20080;-73
2021/03/29 06:25:44;;;;;;;9.15;6.35;;;3.70;99.90;;;3.38;88.64;102450.41;4150578;28;20034;-73
2021/03/29 06:27:58;;;;;;;9.98;6.00;;;3.70;99.90;;;3.39;88.63;102450.34;4168044;28;20091;-72
2021/03/29 06:30:29;;;;;;;8.23;5.60;;;3.70;99.90;;;3.45;88.51;102446.63;4168167;28;20035;-72
2021/03/29 06:32:30;;;;;;;9.90;5.55;;;3.80;99.90;;;3.48;87.85;102451.69;4167760;28;20272;-73
2021/03/29 06:34:33;;;;;;;10.65;6.07;;;3.80;99.90;;;3.42;87.68;102431.97;4167986;28;20076;-73
2021/03/29 06:36:38;;;;;;;7.97;5.35;;;3.90;99.90;;;3.53;87.88;102453.19;4150747;28;20050;-73
2021/03/29 06:38:39;;;;;;;8.75;5.22;;;3.90;99.90;;;3.52;87.50;102450.66;4168141;28;20108;-73
2021/03/29 06:41:02;;;;;;;7.82;5.18;;;3.90;99.90;;;3.60;87.74;102456.38;4168077;28;20040;-73
2021/03/29 06:43:41;;;;;;;8.73;6.15;;;4.00;99.90;;;3.57;88.03;102461.72;4167904;28;20033;-73
2021/03/29 06:45:42;;;;;;;8.07;5.65;;;4.00;99.90;;;3.58;88.39;102451.25;4170672;28;20056;-72
2021/03/29 06:47:43;;;;;;;9.60;6.45;;;4.00;99.90;;;3.70;87.45;102460.25;4170852;28;20179;-73
2021/03/29 06:49:47;;;;;;;8.18;6.97;;;4.10;99.90;;;3.70;87.78;102457.66;4170875;28;20143;-73
2021/03/29 06:51:47;;;;;;;10.50;6.73;;;4.10;99.90;;;3.73;88.05;102454.91;4170961;28;20078;-73
2021/03/29 06:54:07;;;;;;;9.05;6.55;;;4.10;99.90;;;3.74;89.13;102457.44;4170701;28;20763;-74
2021/03/29 06:56:25;;;;;;;10.68;6.90;;;4.20;99.90;;;3.90;88.52;102462.78;4170838;28;20029;-73
2021/03/29 06:58:27;;;;;;;9.40;6.22;;;4.30;99.90;;;3.91;88.50;102457.50;4170702;28;20029;-74
2021/03/29 07:00:29;;;;;;;12.13;7.03;;;4.30;99.90;;;4.00;89.21;102453.63;4170834;28;20458;-73
2021/03/29 07:02:43;;;;;;;11.93;7.57;;;4.40;99.90;;;4.13;88.96;102459.09;4170532;28;20033;-74
2021/03/29 07:04:43;;;;;;;13.60;7.63;;;4.50;99.90;;;4.21;90.44;102465.63;4170506;28;20036;-74
2021/03/29 07:06:46;;;;;;;7.78;6.30;;;4.60;99.90;;;4.33;90.29;102461.63;4170485;28;20029;-73
2021/03/29 07:08:47;;;;;;;10.13;6.80;;;4.70;99.90;;;4.42;89.41;102467.22;4170543;28;20116;-74
2021/03/29 07:10:49;;;;;;;7.85;6.28;;;4.80;99.90;;;4.55;89.26;102477.94;4170407;28;20026;-74
2021/03/29 07:12:52;;;;;;;10.20;7.13;;;4.90;99.90;;;4.60;89.49;102460.25;4170362;28;20030;-74
2021/03/29 07:14:55;;;;;;;11.77;7.22;;;5.00;99.90;;;4.55;89.80;102458.78;4153110;28;20030;-74
2021/03/29 07:16:58;;;;;;;11.25;6.80;;;5.10;99.90;;;4.73;89.88;102455.25;4152948;28;20133;-73
2021/03/29 07:19:06;;;;;;;98.35;87.82;;;5.20;99.90;;;4.95;90.75;102469.81;4152885;28;20029;-74
2021/03/29 07:21:11;;;;;;;14.52;8.57;;;5.30;99.90;;;5.00;90.61;102473.03;4153423;28;20021;-77
2021/03/29 07:23:12;;;;;;;;;;;5.40;99.90;;;5.09;90.64;102469.09;4153013;28;20448;-77
2021/03/29 07:25:15;;;;;;;11.15;6.43;;;5.50;99.90;;;5.07;91.41;102464.88;4170409;28;19909;-77
2021/03/29 07:27:18;;;;;;;12.67;6.67;;;5.60;99.90;;;5.32;91.32;102480.97;4152968;28;20390;-77
2021/03/29 07:29:27;;;;;;;9.93;7.03;;;5.70;99.90;;;5.47;91.34;102473.16;4153012;28;20324;-77
2021/03/29 07:31:42;;;;;;;8.40;6.13;;;5.80;99.90;;;5.57;91.53;102473.53;4170133;28;20030;-77
2021/03/29 07:33:57;;;;;;;13.05;6.82;;;5.90;99.90;;;5.67;92.34;102479.97;4170076;28;20082;-77
2021/03/29 07:35:58;;;;;;;11.25;6.75;;;6.00;99.90;;;5.90;91.85;102484.00;4170269;28;20420;-77
2021/03/29 07:37:59;;;;;;;14.38;8.82;;;6.20;99.90;;;5.94;91.94;102472.44;4152655;28;20052;-77
2021/03/29 07:40:18;;;;;;;11.52;7.25;;;6.30;99.90;;;5.91;92.57;102480.47;4170182;28;20025;-77
2021/03/29 07:42:35;;;;;;;12.50;7.97;;;6.40;99.90;;;6.07;92.53;102481.28;4170200;28;20026;-77
2021/03/29 07:45:00;;;;;;;12.00;7.28;;;6.50;99.90;;;6.24;92.26;102483.00;4170035;28;20041;-77
2021/03/29 07:47:01;;;;;;;12.52;8.05;;;6.60;99.90;;;6.38;92.17;102480.44;4169830;28;20534;-77
2021/03/29 07:49:02;;;;;;;9.15;5.95;;;6.70;99.90;;;6.32;92.72;102475.53;4169869;28;20033;-77
2021/03/29 07:51:12;;;;;;;11.07;6.15;;;6.80;99.90;;;6.55;92.01;102489.03;4152284;28;20029;-77
2021/03/29 07:53:18;;;;;;;11.55;6.13;;;6.90;99.90;;;6.79;91.84;102491.16;4169943;28;20033;-77
2021/03/29 07:55:27;;;;;;;13.63;6.40;;;7.10;99.90;;;6.84;91.83;102494.41;4168793;28;20053;-77
2021/03/29 07:57:43;;;;;;;9.82;6.68;;;7.20;99.90;;;6.98;91.53;102495.28;4169775;28;20033;-77
2021/03/29 07:59:50;;;;;;;9.23;6.40;;;7.30;99.90;;;7.07;90.99;102492.09;4169804;28;20022;-77
2021/03/29 08:02:03;;;;;;;11.48;6.97;;;7.40;99.90;;;7.16;90.65;102495.97;4169572;28;20451;-77
2021/03/29 08:04:04;;;;;;;11.10;7.65;;;7.50;99.90;;;7.25;90.75;102498.03;4169868;28;20381;-77
2021/03/29 08:06:07;;;;;;;9.43;6.40;;;7.50;99.90;;;7.24;90.67;102485.84;4169755;28;20042;-77
2021/03/29 08:11:09;;;;;;;12.30;6.22;;;7.80;99.90;;;7.56;88.55;102495.22;4169526;28;20034;-77
2021/03/29 08:13:10;;;;;;;10.95;6.10;;;7.90;99.90;;;7.58;89.75;102498.63;4169538;28;20026;-77
2021/03/29 08:15:12;;;;;;;9.88;6.50;;;8.10;99.90;;;7.66;90.76;102491.13;4169610;28;20036;-76
2021/03/29 08:17:53;;;;;;;11.77;6.80;;;8.10;99.90;;;7.69;90.50;102485.66;4169452;28;20044;-76
2021/03/29 08:20:21;;;;;;;7.35;5.00;;;8.30;99.90;;;7.77;90.49;102493.91;4136855;28;20041;-76
2021/03/29 08:22:22;;;;;;;12.80;6.88;;;8.30;99.90;;;7.86;90.91;102496.91;4169540;28;20044;-76
2021/03/29 08:24:34;;;;;;;11.63;6.38;;;8.40;99.90;;;7.90;90.64;102496.63;4169498;28;20029;-76
2021/03/29 08:26:38;;;;;;;8.90;5.72;;;8.50;99.90;;;8.04;90.72;102509.72;4169477;28;20124;-76
2021/03/29 08:29:08;;;;;;;10.77;5.38;;;8.60;99.90;;;8.24;89.84;102506.69;4169551;28;20037;-76
2021/03/29 08:31:09;;;;;;;11.70;5.93;;;8.70;99.90;;;8.36;88.85;102507.75;4169070;28;20179;-76
2021/03/29 08:33:11;;;;;;;9.43;5.50;;;8.90;99.90;;;8.50;88.17;102507.69;4151734;28;20026;-76
2021/03/29 08:35:17;;;;;;;11.45;5.60;;;9.00;99.90;;;8.59;88.06;102504.44;4161735;28;20388;-76
2021/03/29 08:37:36;;;;;;;11.55;5.45;;;9.10;99.90;;;8.74;86.99;102505.22;4169247;28;20104;-76
2021/03/29 08:39:44;;;;;;;9.07;5.15;;;9.20;99.90;;;8.95;86.48;102505.59;4169367;28;20025;-76
2021/03/29 08:41:49;;;;;;;12.48;5.80;;;9.40;99.90;;;9.13;85.97;102499.09;4169385;28;20116;-76
2021/03/29 08:43:50;;;;;;;9.55;5.45;;;9.60;99.90;;;9.30;86.17;102501.41;4152132;28;20022;-76
2021/03/29 08:45:51;;;;;;;8.90;4.95;;;9.80;99.90;;;9.43;85.53;102507.53;4151476;28;20091;-76
2021/03/29 08:48:04;;;;;;;8.07;4.80;;;10.00;99.90;;;9.46;83.74;102491.53;4151448;28;20041;-76
2021/03/29 08:50:39;;;;;;;10.43;4.68;;;10.10;99.90;;;9.60;84.30;102495.81;4151450;28;20087;-76
2021/03/29 08:52:47;;;;;;;9.48;5.20;;;10.20;99.90;;;9.80;83.08;102504.00;4127020;28;20034;-76